This is the latest recevied weather packets stored in our database for station/object K7TUS-6. If no packets are shown the sender has not sent any weather packets the latest 1 day(s).
| Time | Temp. | Humidity | Pressure | Rain* | Wind** | Luminosity | Snow |
|---|---|---|---|---|---|---|---|
| 1778001004 | 5° C | 44% | 976.3 hPa | - | 5.36 m/s, 358° | - | - |
| 1778000704 | 5° C | 46% | 976.4 hPa | - | 3.13 m/s, 332° | - | - |
| 1778000403 | 4.44° C | 43% | 976.9 hPa | - | 4.47 m/s, 336° | - | - |
| 1778000108 | 4.44° C | 49% | 977 hPa | - | 3.13 m/s, 331° | - | - |
| 1777999808 | 4.44° C | 48% | 978.3 hPa | - | 3.13 m/s, 332° | - | - |
| 1777999507 | 5° C | 43% | 977.3 hPa | - | 5.36 m/s, 344° | - | - |
| 1777998906 | 4.44° C | 46% | 977.1 hPa | - | 4.47 m/s, 345° | - | - |
| 1777998606 | 4.44° C | 44% | 977.4 hPa | - | 4.47 m/s, 337° | - | - |
| 1777998004 | 4.44° C | 45% | 977.2 hPa | - | 4.02 m/s, 287° | - | - |
| 1777997704 | 5° C | 42% | 976.9 hPa | - | 5.36 m/s, 347° | - | - |
| 1777997403 | 4.44° C | 50% | 977.2 hPa | - | 3.13 m/s, 225° | - | - |
| 1777996508 | 4.44° C | 44% | 977 hPa | - | 6.26 m/s, 332° | - | - |
| 1777995909 | 4.44° C | 51% | 976.3 hPa | - | 1.79 m/s, 203° | - | - |
| 1777995606 | 5° C | 44% | 975.9 hPa | - | 5.36 m/s, 340° | - | - |
| 1777995006 | 4.44° C | 44% | 976.9 hPa | - | 5.36 m/s, 340° | - | - |
| 1777994705 | 4.44° C | 45% | 976.1 hPa | - | 5.36 m/s, 281° | - | - |
| 1777994404 | 4.44° C | 46% | 976.5 hPa | - | 4.47 m/s, 337° | - | - |
| 1777994103 | 3.89° C | 47% | 976.3 hPa | - | 3.58 m/s, 340° | - | - |
| 1777993509 | 3.33° C | 52% | 976.9 hPa | - | 1.34 m/s, 185° | - | - |
| 1777993207 | 3.89° C | 43% | 977.6 hPa | - | 6.26 m/s, 344° | - | - |
| 1777992907 | 3.89° C | 49% | 976.8 hPa | - | 4.02 m/s, 315° | - | - |
| 1777992605 | 3.89° C | 50% | 977.5 hPa | - | 2.24 m/s, 255° | - | - |
| 1777992305 | 3.89° C | 50% | 976.6 hPa | - | 3.58 m/s, 206° | - | - |
| 1777992004 | 3.89° C | 46% | 976.7 hPa | - | 5.36 m/s, 331° | - | - |
| 1777991403 | 3.89° C | 46% | 976.7 hPa | - | 4.47 m/s, 331° | - | - |
* Rain since midnight (hover to see other rain measurements)
** Current wind speed in m/s (hover to see current wind gust speed)